createdAt,value
2019-02-18T07:57:44.023Z,24.02
2019-02-18T08:17:54.863Z,21.45
2019-02-18T08:28:00.788Z,30.23
2019-02-18T08:38:06.688Z,44.77
2019-02-18T08:48:12.509Z,35.63
2019-02-18T08:58:18.283Z,33.98
2019-02-18T09:08:24.434Z,82.82
2019-02-18T09:18:30.233Z,166.32
2019-02-18T09:28:36.089Z,146.93
2019-02-18T09:48:46.836Z,88.12
2019-02-18T09:58:52.698Z,78.62
2019-02-18T10:08:58.833Z,71.28
2019-02-18T10:19:04.749Z,62.50
2019-02-18T10:29:10.766Z,49.18
2019-02-18T10:39:16.675Z,56.95
2019-02-18T10:49:22.460Z,52.90
2019-02-18T10:59:29.167Z,40.88
2019-02-18T11:19:39.921Z,35.05
2019-02-18T11:29:45.619Z,39.38
2019-02-18T11:39:51.392Z,35.90
2019-02-18T11:49:57.278Z,44.65
2019-02-18T12:00:03.237Z,45.17
2019-02-18T12:10:12.327Z,47.45
2019-02-18T12:20:18.810Z,49.25
2019-02-18T12:30:24.783Z,49.80
2019-02-18T12:40:30.671Z,44.80
2019-02-18T12:50:36.539Z,38.90
2019-02-18T13:00:42.464Z,30.12
2019-02-18T13:10:48.331Z,25.57
2019-02-18T13:20:54.311Z,27.27
2019-02-18T13:42:07.302Z,35.00
2019-02-18T13:52:09.108Z,35.90
2019-02-18T14:02:15.943Z,26.75
2019-02-18T14:12:21.737Z,21.15
2019-02-18T14:22:27.597Z,40.40
2019-02-18T14:32:33.463Z,21.62
2019-02-18T14:52:44.327Z,23.18
2019-02-18T15:02:52.487Z,22.15
2019-02-18T15:12:58.458Z,20.65
2019-02-18T15:23:04.278Z,18.12
2019-02-18T15:33:10.164Z,23.57
2019-02-18T15:43:15.992Z,17.67
2019-02-18T15:53:21.846Z,22.22
2019-02-18T16:03:27.830Z,23.10
2019-02-18T16:13:33.703Z,26.27
2019-02-18T16:23:39.594Z,27.58
2019-02-18T16:43:51.400Z,28.05
2019-02-18T16:53:57.739Z,35.78
2019-02-18T17:04:03.679Z,37.60
2019-02-18T17:14:09.620Z,43.58
2019-02-18T17:24:15.503Z,40.08
2019-02-18T17:34:21.346Z,39.27
2019-02-18T17:44:27.555Z,46.15
2019-02-18T17:54:33.407Z,43.75
2019-02-18T18:04:39.448Z,46.13
2019-02-18T18:14:45.284Z,49.30
2019-02-18T18:24:51.501Z,46.00
2019-02-18T18:34:57.694Z,38.75
2019-02-18T18:45:03.607Z,41.37
2019-02-18T18:55:09.590Z,42.15
2019-02-18T19:05:15.424Z,45.63
2019-02-18T19:15:21.381Z,45.12
2019-02-18T19:25:27.237Z,46.37
2019-02-18T19:35:33.174Z,48.60
2019-02-18T19:45:39.143Z,43.85
2019-02-18T20:05:49.834Z,42.70
2019-02-18T20:15:56.217Z,51.73
2019-02-18T20:26:02.172Z,55.90
2019-02-18T20:36:08.233Z,55.28
2019-02-18T20:56:19.082Z,84.90
2019-02-18T21:06:24.914Z,79.82
2019-02-18T21:16:30.790Z,78.55
2019-02-18T21:26:36.797Z,76.92
2019-02-18T21:36:43.473Z,67.97
2019-02-18T21:56:54.536Z,60.58
2019-02-18T22:27:10.442Z,56.37
2019-02-18T22:37:16.347Z,48.75
2019-02-18T22:47:22.593Z,53.65
2019-02-18T22:57:28.403Z,51.53
2019-02-18T23:07:34.189Z,55.73
2019-02-18T23:17:39.980Z,54.65
2019-02-18T23:27:45.921Z,53.70
2019-02-18T23:37:51.735Z,56.63
2019-02-18T23:47:57.548Z,54.67
2019-02-18T23:58:03.406Z,51.75
